Time;durP1;ratioP1;P1;durP2;ratioP2;P2;SDS_P1;SDS_P2;PMS_P1;PMS_P2;Temp;Humidity;BMP_temperature;BMP_pressure;BME280_temperature;BME280_humidity;BME280_pressure;Samples;Min_cycle;Max_cycle;Signal;HPM_P1;HPM_P2
2021/10/31 00:02:15;;;;;;;7.00;5.50;;;;;;;10.95;100.00;154172.75;5075116;28;20445;-74
2021/10/31 00:04:52;;;;;;;5.17;4.67;;;;;;;10.89;100.00;154157.19;5072070;28;20540;-74
2021/10/31 00:07:27;;;;;;;6.13;5.50;;;;;;;10.86;100.00;154149.41;5077419;28;20453;-74
2021/10/31 00:10:04;;;;;;;5.00;4.50;;;;;;;10.83;100.00;154140.31;5057706;28;20844;-74
2021/10/31 00:12:41;;;;;;;4.90;4.40;;;;;;;10.82;100.00;154139.06;5068067;28;20566;-74
2021/10/31 00:15:16;;;;;;;6.73;5.67;;;;;;;10.75;100.00;154120.91;5075392;28;20409;-73
2021/10/31 00:17:52;;;;;;;4.50;4.10;;;;;;;10.70;100.00;154107.97;5086375;28;20547;-73
2021/10/31 00:20:28;;;;;;;5.00;4.13;;;;;;;10.69;100.00;154104.09;5092206;28;20504;-73
2021/10/31 00:23:04;;;;;;;6.03;4.30;;;;;;;10.74;100.00;154117.03;5097168;28;20540;-74
2021/10/31 00:25:40;;;;;;;5.30;4.50;;;;;;;10.78;100.00;154128.69;5053456;28;20477;-74
2021/10/31 00:28:15;;;;;;;4.30;3.70;;;;;;;10.80;100.00;154133.84;5073956;28;20453;-74
2021/10/31 00:30:51;;;;;;;4.77;4.03;;;;;;;10.90;100.00;154159.78;5053746;28;20429;-74
2021/10/31 00:33:27;;;;;;;3.30;3.00;;;;;;;10.88;100.00;154153.31;5080935;28;20449;-73
2021/10/31 00:36:04;;;;;;;3.70;3.30;;;;;;;10.94;100.00;154168.81;5053874;28;20513;-74
2021/10/31 00:38:40;;;;;;;3.60;3.30;;;;;;;10.95;100.00;154172.75;5057671;28;20469;-74
2021/10/31 00:41:15;;;;;;;3.70;2.90;;;;;;;10.95;100.00;154172.75;5053772;28;20449;-73
2021/10/31 00:43:51;;;;;;;3.43;2.97;;;;;;;10.92;100.00;154163.66;5057895;28;20473;-74
2021/10/31 00:46:27;;;;;;;3.97;3.33;;;;;;;10.89;100.00;154157.19;5089828;28;20429;-73
2021/10/31 00:49:02;;;;;;;3.83;2.80;;;;;;;10.85;100.00;154146.84;5106553;28;20853;-74
2021/10/31 00:51:40;;;;;;;3.43;3.13;;;;;;;10.83;100.00;154141.63;5054209;28;20445;-74
2021/10/31 00:54:16;;;;;;;3.47;3.07;;;;;;;10.79;100.00;154131.28;5053446;28;20438;-74
2021/10/31 00:56:51;;;;;;;4.33;3.10;;;;;;;10.74;100.00;154118.34;5062078;28;20831;-74
2021/10/31 00:59:27;;;;;;;3.70;2.90;;;;;;;10.71;100.00;154110.56;5114308;27;20497;-74
2021/10/31 01:02:07;;;;;;;3.83;3.50;;;;;;;10.67;100.00;154098.94;5064599;28;20449;-74
2021/10/31 01:04:45;;;;;;;4.40;3.10;;;;;;;10.66;100.00;154096.31;5056452;28;20552;-74
2021/10/31 01:07:33;;;;;;;3.90;3.10;;;;;;;10.64;100.00;154091.16;5058024;28;20449;-73
2021/10/31 01:10:15;;;;;;;3.00;2.70;;;;;;;10.60;100.00;154082.06;5060214;28;20484;-73
2021/10/31 01:13:23;;;;;;;3.13;2.83;;;;;;;10.58;100.00;154076.91;5065398;28;20936;-74
2021/10/31 01:16:07;;;;;;;2.93;2.63;;;;;;;10.59;100.00;154079.47;5068466;28;20542;-74
2021/10/31 01:18:57;;;;;;;3.73;2.60;;;;;;;10.56;100.00;154070.44;5072559;28;20445;-74
2021/10/31 01:21:41;;;;;;;3.20;2.70;;;;;;;10.53;100.00;154063.97;5090253;28;20859;-73
2021/10/31 01:24:27;;;;;;;3.50;2.90;;;;;;;10.53;100.00;154063.97;5064218;28;20464;-74
2021/10/31 01:27:13;;;;;;;3.07;2.50;;;;;;;10.49;100.00;154053.59;5095102;28;20456;-74
2021/10/31 01:29:55;;;;;;;3.60;2.87;;;;;;;10.49;100.00;154052.28;5073659;28;20454;-74
2021/10/31 01:32:39;;;;;;;3.57;3.10;;;;;;;10.47;100.00;154048.41;5101141;28;20441;-74
2021/10/31 01:35:20;;;;;;;3.70;3.10;;;;;;;10.44;100.00;154039.34;5060529;28;20521;-73
2021/10/31 01:38:04;;;;;;;3.53;3.20;;;;;;;10.38;100.00;154025.09;5056706;28;20481;-74
2021/10/31 01:40:45;;;;;;;3.37;2.93;;;;;;;10.37;100.00;154022.53;5057418;28;20539;-74
2021/10/31 01:43:30;;;;;;;4.00;3.23;;;;;;;10.36;100.00;154021.22;5062545;28;20449;-74
2021/10/31 01:46:10;;;;;;;3.70;3.00;;;;;;;10.33;100.00;154013.47;5076512;28;20816;-74
2021/10/31 01:48:56;;;;;;;3.73;2.70;;;;;;;10.33;100.00;154013.47;5074277;28;20440;-73
2021/10/31 01:51:37;;;;;;;3.63;2.97;;;;;;;10.33;100.00;154012.16;5067936;28;20446;-73
2021/10/31 01:54:17;;;;;;;3.60;3.30;;;;;;;10.29;100.00;154001.81;5074584;28;20430;-73
2021/10/31 01:56:57;;;;;;;3.80;2.40;;;;;;;10.27;100.00;153996.66;5074791;28;20544;-74
2021/10/31 01:59:37;;;;;;;3.50;2.80;;;;;;;10.23;100.00;153986.28;5074513;28;20528;-73
2021/10/31 02:02:15;;;;;;;4.40;2.40;;;;;;;10.19;100.00;153975.94;5074109;28;20532;-73
2021/10/31 02:04:51;;;;;;;3.20;2.83;;;;;;;10.17;100.00;153972.03;5055762;28;20558;-73
2021/10/31 02:07:27;;;;;;;3.40;3.10;;;;;;;10.15;100.00;153965.56;5043831;28;20994;-73
2021/10/31 02:10:03;;;;;;;4.40;3.20;;;;;;;10.11;100.00;153956.44;5070410;28;20445;-73
2021/10/31 02:12:41;;;;;;;4.57;3.50;;;;;;;10.11;100.00;153956.44;5090033;28;20795;-73
2021/10/31 02:15:17;;;;;;;4.80;3.40;;;;;;;10.09;100.00;153949.97;5097586;28;20927;-73
2021/10/31 02:17:55;;;;;;;3.73;3.30;;;;;;;10.07;100.00;153944.81;5074253;28;20453;-73
2021/10/31 02:20:31;;;;;;;3.53;3.00;;;;;;;10.05;100.00;153939.63;5040483;28;20453;-73
2021/10/31 02:23:07;;;;;;;3.73;3.27;;;;;;;10.02;100.00;153933.16;5089552;28;20438;-74
2021/10/31 02:25:43;;;;;;;4.80;3.40;;;;;;;9.99;100.00;153924.09;5058924;28;20468;-73
2021/10/31 02:28:19;;;;;;;4.57;3.70;;;;;;;9.98;100.00;153921.53;5080941;28;20445;-73
2021/10/31 02:30:54;;;;;;;4.17;3.57;;;;;;;9.97;100.00;153918.91;5089519;28;20817;-73
2021/10/31 02:33:30;;;;;;;3.40;3.10;;;;;;;9.96;100.00;153916.31;5073217;28;20824;-73
2021/10/31 02:36:05;;;;;;;4.00;2.90;;;;;;;9.92;100.00;153906.00;5094339;28;20440;-73
2021/10/31 02:38:42;;;;;;;3.30;3.00;;;;;;;9.94;100.00;153911.16;5074107;28;20476;-74
2021/10/31 02:41:18;;;;;;;3.30;3.00;;;;;;;9.97;100.00;153918.91;5077220;28;20452;-74
2021/10/31 02:43:53;;;;;;;5.10;3.13;;;;;;;9.96;100.00;153916.31;5098566;28;20449;-73
2021/10/31 02:46:32;;;;;;;3.10;2.73;;;;;;;9.95;100.00;153913.75;5057638;28;20441;-73
2021/10/31 02:49:08;;;;;;;4.50;4.10;;;;;;;9.94;100.00;153911.16;5056335;28;20442;-73
2021/10/31 02:51:49;;;;;;;4.03;3.40;;;;;;;9.94;100.00;153911.16;5055020;28;20441;-73
2021/10/31 02:54:31;;;;;;;3.60;3.20;;;;;;;9.93;100.00;153908.59;5058198;28;20446;-73
2021/10/31 02:57:10;;;;;;;5.20;3.80;;;;;;;9.92;100.00;153906.00;5100563;28;20457;-73
2021/10/31 02:59:49;;;;;;;4.20;3.33;;;;;;;9.91;100.00;153903.38;5073619;28;20483;-73
2021/10/31 03:02:27;;;;;;;3.20;2.90;;;;;;;9.91;100.00;153904.69;5074879;28;20457;-73
2021/10/31 03:05:03;;;;;;;3.47;2.70;;;;;;;9.93;100.00;153908.59;5082556;28;20548;-74
2021/10/31 03:07:39;;;;;;;4.70;2.40;;;;;;;9.97;100.00;153918.91;5074120;28;20472;-74
2021/10/31 03:10:17;;;;;;;2.70;2.10;;;;;;;10.02;100.00;153933.16;5093086;28;20444;-73
2021/10/31 03:12:53;;;;;;;3.00;2.30;;;;;;;10.05;100.00;153940.94;5069631;28;20837;-74
2021/10/31 03:15:28;;;;;;;3.17;2.53;;;;;;;10.08;100.00;153948.72;5108644;27;20435;-74
2021/10/31 03:18:04;;;;;;;3.00;2.27;;;;;;;10.10;100.00;153952.56;5058442;28;20449;-74
2021/10/31 03:20:39;;;;;;;2.67;2.20;;;;;;;10.09;100.00;153949.97;5072319;28;20446;-74
2021/10/31 03:23:15;;;;;;;2.77;2.37;;;;;;;10.08;100.00;153948.72;5078640;28;20452;-74
2021/10/31 03:25:52;;;;;;;2.80;2.33;;;;;;;10.07;100.00;153944.81;5089321;28;20469;-74
2021/10/31 03:28:27;;;;;;;3.20;2.47;;;;;;;10.07;100.00;153944.81;5055777;28;20530;-74
2021/10/31 03:31:03;;;;;;;3.37;2.40;;;;;;;10.04;100.00;153938.34;5088456;28;20941;-74
2021/10/31 03:33:39;;;;;;;3.13;2.53;;;;;;;10.03;100.00;153934.47;5061471;28;20442;-74
2021/10/31 03:36:14;;;;;;;3.37;2.20;;;;;;;10.02;100.00;153931.88;5107294;28;20445;-74
2021/10/31 03:38:50;;;;;;;2.47;1.97;;;;;;;10.00;100.00;153926.69;5073835;28;20841;-74
2021/10/31 03:41:27;;;;;;;2.63;1.90;;;;;;;9.97;100.00;153918.91;5094310;28;20444;-74
2021/10/31 03:44:03;;;;;;;2.30;2.00;;;;;;;9.97;100.00;153918.91;5085744;28;20446;-74
2021/10/31 03:46:39;;;;;;;2.30;1.60;;;;;;;9.95;100.00;153913.75;5067194;28;20943;-74
2021/10/31 03:49:16;;;;;;;2.90;2.60;;;;;;;9.92;100.00;153906.00;5092767;28;20839;-74
2021/10/31 03:51:51;;;;;;;3.87;2.30;;;;;;;9.89;100.00;153899.53;5072196;28;20535;-74
2021/10/31 03:54:27;;;;;;;3.50;3.00;;;;;;;9.88;100.00;153895.59;5057324;28;20483;-73
2021/10/31 03:57:05;;;;;;;3.17;2.87;;;;;;;9.88;100.00;153895.59;5059699;28;20456;-74
2021/10/31 03:59:41;;;;;;;3.33;2.50;;;;;;;9.86;100.00;153890.44;5074117;28;20445;-73
2021/10/31 04:02:16;;;;;;;2.60;1.80;;;;;;;9.82;100.00;153881.41;5099817;28;20445;-73
2021/10/31 04:04:52;;;;;;;4.00;2.30;;;;;;;9.82;100.00;153880.13;5057383;28;20839;-73
2021/10/31 04:07:28;;;;;;;2.40;2.20;;;;;;;9.80;100.00;153876.22;5043789;28;20444;-73
2021/10/31 04:10:04;;;;;;;3.00;2.00;;;;;;;9.79;100.00;153874.91;5091883;28;20441;-73
2021/10/31 04:12:41;;;;;;;3.20;2.47;;;;;;;9.77;100.00;153868.44;5088729;28;20450;-73
2021/10/31 04:15:17;;;;;;;2.80;2.40;;;;;;;9.73;100.00;153858.09;5054549;28;20446;-73
2021/10/31 04:17:52;;;;;;;2.70;2.50;;;;;;;9.69;100.00;153849.03;5054070;28;20782;-74
2021/10/31 04:20:28;;;;;;;2.47;2.20;;;;;;;9.67;100.00;153843.88;5040309;28;20477;-73
2021/10/31 04:23:04;;;;;;;3.17;2.73;;;;;;;9.65;100.00;153838.72;5072150;28;21239;-73
2021/10/31 04:25:39;;;;;;;3.43;3.13;;;;;;;9.62;100.00;153829.63;5062443;28;20497;-73
2021/10/31 04:28:16;;;;;;;4.73;2.90;;;;;;;9.61;100.00;153828.34;5057916;28;20456;-73
2021/10/31 04:30:52;;;;;;;3.53;3.10;;;;;;;9.59;100.00;153823.16;5073394;28;20543;-73
2021/10/31 04:33:27;;;;;;;3.93;3.53;;;;;;;9.57;100.00;153818.00;5077826;28;20559;-74
2021/10/31 04:36:03;;;;;;;3.90;3.50;;;;;;;9.55;100.00;153812.84;5057953;28;20958;-74
2021/10/31 04:38:39;;;;;;;4.70;3.70;;;;;;;9.54;100.00;153808.94;5059444;28;20889;-74
2021/10/31 04:41:14;;;;;;;4.80;4.37;;;;;;;9.51;100.00;153802.47;5095083;28;20432;-73
2021/10/31 04:43:51;;;;;;;5.67;5.10;;;;;;;9.52;100.00;153803.78;5096536;28;20810;-74
2021/10/31 04:46:27;;;;;;;5.10;4.50;;;;;;;9.51;100.00;153802.47;5065029;28;20863;-73
2021/10/31 04:49:02;;;;;;;6.10;5.13;;;;;;;9.50;100.00;153798.59;5072877;28;20448;-73
2021/10/31 04:51:38;;;;;;;6.70;6.00;;;;;;;9.48;100.00;153794.69;5095592;28;20417;-74
2021/10/31 04:54:13;;;;;;;7.13;6.43;;;;;;;9.49;100.00;153797.31;5095610;28;20500;-72
2021/10/31 04:56:48;;;;;;;7.33;6.57;;;;;;;9.47;100.00;153790.84;5058246;28;20422;-72
2021/10/31 04:59:25;;;;;;;8.57;7.67;;;;;;;9.47;100.00;153790.84;5079022;28;20441;-74
2021/10/31 05:02:01;;;;;;;7.50;6.80;;;;;;;9.45;100.00;153786.94;5042135;28;20445;-74
2021/10/31 05:04:36;;;;;;;7.60;6.90;;;;;;;9.47;100.00;153792.13;5058064;28;20851;-74
2021/10/31 05:07:15;;;;;;;7.23;6.47;;;;;;;9.49;100.00;153796.00;5077313;28;20441;-74
2021/10/31 05:09:50;;;;;;;7.20;6.30;;;;;;;9.49;100.00;153797.31;5095778;28;20500;-75
2021/10/31 05:12:27;;;;;;;8.57;7.70;;;;;;;9.49;100.00;153797.31;5092520;28;20485;-74
2021/10/31 05:15:04;;;;;;;8.13;7.33;;;;;;;9.50;100.00;153799.91;5069047;28;20441;-74
2021/10/31 05:17:41;;;;;;;12.20;8.30;;;;;;;9.51;100.00;153802.47;5077679;28;20448;-74
2021/10/31 05:20:17;;;;;;;9.90;8.70;;;;;;;9.52;100.00;153805.06;5075114;28;20747;-74
2021/10/31 05:22:53;;;;;;;7.40;6.70;;;;;;;9.53;100.00;153807.63;5091460;28;20443;-74
2021/10/31 05:25:28;;;;;;;8.33;7.53;;;;;;;9.53;100.00;153806.38;5074931;28;20457;-74
2021/10/31 05:28:04;;;;;;;7.80;7.00;;;;;;;9.52;100.00;153805.06;5057014;28;20477;-74
2021/10/31 05:30:41;;;;;;;7.13;6.43;;;;;;;9.53;100.00;153806.38;5056271;28;20540;-73
2021/10/31 05:33:18;;;;;;;7.30;6.60;;;;;;;9.52;100.00;153805.06;5079737;28;20455;-74
2021/10/31 05:35:53;;;;;;;8.57;7.03;;;;;;;9.53;100.00;153807.63;5073255;28;20851;-74
2021/10/31 05:38:29;;;;;;;7.53;6.17;;;;;;;9.51;100.00;153801.16;5094316;28;20461;-74
2021/10/31 05:41:04;;;;;;;7.10;6.40;;;;;;;9.49;100.00;153797.31;5061402;28;20445;-74
2021/10/31 05:43:40;;;;;;;7.10;5.77;;;;;;;9.45;100.00;153786.94;5093962;28;20437;-74
2021/10/31 05:46:16;;;;;;;6.87;6.17;;;;;;;9.46;100.00;153789.53;5087797;28;20461;-74
2021/10/31 05:48:52;;;;;;;6.77;5.40;;;;;;;9.47;100.00;153792.13;5058176;28;20445;-74
2021/10/31 05:51:29;;;;;;;7.00;6.10;;;;;;;9.47;100.00;153792.13;5089186;28;20453;-74
2021/10/31 05:54:05;;;;;;;5.90;5.10;;;;;;;9.52;100.00;153803.78;5074095;28;20821;-73
2021/10/31 05:56:40;;;;;;;5.40;4.90;;;;;;;9.58;100.00;153820.56;5073597;28;20442;-74
2021/10/31 05:59:15;;;;;;;8.20;5.07;;;;;;;9.61;100.00;153828.34;5106172;28;20456;-74
2021/10/31 06:01:52;;;;;;;4.63;4.13;;;;;;;9.63;100.00;153832.25;5079550;28;20425;-74
2021/10/31 06:04:28;;;;;;;5.90;4.07;;;;;;;9.66;100.00;153841.25;5085237;28;20445;-74
2021/10/31 06:07:04;;;;;;;5.47;4.50;;;;;;;9.68;100.00;153845.16;5066306;28;20484;-74
2021/10/31 06:09:40;;;;;;;4.90;4.43;;;;;;;9.68;100.00;153846.47;5094259;28;20782;-74
2021/10/31 06:12:16;;;;;;;5.13;4.50;;;;;;;9.67;100.00;153843.88;5055528;28;20449;-74
2021/10/31 06:14:51;;;;;;;5.97;5.30;;;;;;;9.72;100.00;153856.81;5104857;27;20437;-74
2021/10/31 06:17:28;;;;;;;5.67;5.10;;;;;;;9.71;100.00;153854.25;5089948;28;20798;-74
2021/10/31 06:20:04;;;;;;;4.27;3.87;;;;;;;9.74;100.00;153861.97;5084987;28;20464;-74
2021/10/31 06:22:40;;;;;;;4.77;4.27;;;;;;;9.78;100.00;153872.34;5084364;28;20455;-74
2021/10/31 06:25:16;;;;;;;4.97;3.70;;;;;;;9.84;100.00;153885.28;5101041;28;20454;-74
2021/10/31 06:27:51;;;;;;;4.90;4.10;;;;;;;9.90;100.00;153900.81;5081691;28;20441;-74
2021/10/31 06:30:27;;;;;;;5.10;4.60;;;;;;;9.92;100.00;153906.00;5073022;28;20444;-74
2021/10/31 06:33:05;;;;;;;5.50;4.40;;;;;;;9.98;100.00;153921.53;5101438;28;20453;-74
2021/10/31 06:35:41;;;;;;;5.47;4.97;;;;;;;10.09;100.00;153949.97;5073628;28;20414;-74
2021/10/31 06:38:16;;;;;;;6.83;5.50;;;;;;;10.22;100.00;153983.66;5075031;28;20465;-74
2021/10/31 06:40:52;;;;;;;5.63;4.90;;;;;;;10.31;100.00;154007.00;5040970;28;20453;-74
2021/10/31 06:43:28;;;;;;;6.53;5.10;;;;;;;10.42;100.00;154034.16;5106662;28;20509;-74
2021/10/31 06:46:04;;;;;;;6.97;6.27;;;;;;;10.52;100.00;154061.34;5110224;27;20457;-74
2021/10/31 06:48:40;;;;;;;5.67;5.00;;;;;;;10.65;100.00;154095.03;5074008;28;20817;-74
2021/10/31 06:51:16;;;;;;;5.20;4.50;;;;;;;10.82;100.00;154137.78;5093535;28;20421;-74
2021/10/31 06:53:52;;;;;;;5.67;5.13;;;;;;;10.97;100.00;154177.91;5094834;28;20450;-74
2021/10/31 06:56:28;;;;;;;5.00;4.40;;;;;;;11.14;100.00;154219.38;5055806;28;20464;-74
2021/10/31 06:59:03;;;;;;;5.20;4.70;;;;;;;11.25;100.00;154247.88;5070914;28;20428;-74
2021/10/31 07:01:39;;;;;;;5.73;4.10;;;;;;;11.32;100.00;154266.00;5109147;28;20441;-74
2021/10/31 07:04:16;;;;;;;6.13;4.53;;;;;;;11.35;100.00;154273.78;5073977;28;20445;-74
2021/10/31 07:06:51;;;;;;;5.47;4.30;;;;;;;11.38;100.00;154281.56;5108292;28;20461;-74
2021/10/31 07:09:27;;;;;;;6.03;4.40;;;;;;;11.45;100.00;154299.69;5103498;28;20437;-74
2021/10/31 07:12:03;;;;;;;4.90;4.33;;;;;;;11.53;100.00;154320.41;5056359;28;20540;-74
2021/10/31 07:14:39;;;;;;;4.53;4.13;;;;;;;11.66;100.00;154352.78;5089320;28;20449;-74
2021/10/31 07:17:14;;;;;;;4.90;4.40;;;;;;;11.82;100.00;154394.31;5087346;28;20919;-74
2021/10/31 07:19:51;;;;;;;4.83;4.33;;;;;;;11.98;100.00;154435.81;5088696;28;20870;-74
2021/10/31 07:22:27;;;;;;;5.43;4.93;;;;;;;12.11;100.00;154469.50;5052409;28;20489;-74
2021/10/31 07:25:05;;;;;;;5.50;4.90;;;;;;;12.14;100.00;154478.59;5092044;28;20444;-74
2021/10/31 07:27:41;;;;;;;4.80;4.37;;;;;;;12.21;100.00;154496.72;5074186;28;20465;-75
2021/10/31 07:30:16;;;;;;;5.60;5.07;;;;;;;12.21;100.00;154495.41;5058148;28;20803;-75
2021/10/31 07:32:56;;;;;;;6.57;5.97;;;;;;;12.11;100.00;154470.81;5054985;28;20438;-74
2021/10/31 07:35:33;;;;;;;6.30;5.70;;;;;;;12.05;100.00;154455.25;5073666;28;20451;-74
2021/10/31 07:38:09;;;;;;;7.57;6.27;;;;;;;12.01;100.00;154444.91;5089812;28;20472;-74
2021/10/31 07:40:45;;;;;;;7.97;7.17;;;;;;;11.95;100.00;154429.31;5073815;28;21030;-74
2021/10/31 07:43:20;;;;;;;6.47;5.87;;;;;;;11.90;100.00;154416.38;5069428;28;20476;-74
2021/10/31 07:45:56;;;;;;;6.80;6.20;;;;;;;11.87;100.00;154407.28;5072768;28;20462;-74
2021/10/31 07:48:31;;;;;;;7.73;6.97;;;;;;;11.87;100.00;154408.56;5055919;28;20454;-75
2021/10/31 07:51:09;;;;;;;10.07;6.83;;;;;;;12.07;100.00;154460.41;5071946;28;20445;-74
2021/10/31 07:53:44;;;;;;;7.87;6.87;;;;;;;12.21;100.00;154495.41;5087875;28;20485;-74
2021/10/31 07:56:23;;;;;;;7.70;7.03;;;;;;;12.36;100.00;154533.03;5068162;28;20441;-74
2021/10/31 07:58:58;;;;;;;7.07;6.10;;;;;;;12.38;100.00;154538.22;5056227;28;20449;-74
2021/10/31 08:01:34;;;;;;;6.37;5.73;;;;;;;12.43;100.00;154551.19;5072642;28;20418;-74
2021/10/31 08:04:10;;;;;;;6.50;5.40;;;;;;;12.49;100.00;154566.75;5089744;28;20528;-74
2021/10/31 08:06:47;;;;;;;5.80;5.20;;;;;;;12.55;100.00;154582.34;5077971;28;20456;-74
2021/10/31 08:09:23;;;;;;;6.17;5.60;;;;;;;12.57;100.00;154588.81;5095612;28;20548;-74
2021/10/31 08:11:58;;;;;;;5.70;5.00;;;;;;;12.59;100.00;154592.69;5059277;28;20984;-74
2021/10/31 08:14:34;;;;;;;5.10;4.60;;;;;;;12.60;100.00;154595.28;5071147;28;20939;-75
2021/10/31 08:17:10;;;;;;;5.13;4.50;;;;;;;12.70;100.00;154622.53;5073067;28;20472;-74
2021/10/31 08:19:45;;;;;;;4.87;4.00;;;;;;;12.77;100.00;154640.66;5073489;28;20448;-74
2021/10/31 08:22:22;;;;;;;5.07;4.17;;;;;;;12.76;100.00;154638.06;5057880;28;20465;-74
2021/10/31 08:24:58;;;;;;;5.70;5.10;;;;;;;12.77;100.00;154640.66;5064526;28;20453;-74
2021/10/31 08:27:34;;;;;;;6.00;5.23;;;;;;;12.75;100.00;154634.19;5053878;28;20473;-74
2021/10/31 08:30:10;;;;;;;5.80;5.20;;;;;;;12.84;100.00;154657.50;5056181;28;20461;-74
2021/10/31 08:32:49;;;;;;;5.40;4.90;;;;;;;12.94;97.81;154683.50;5085862;28;20442;-74
2021/10/31 08:35:25;;;;;;;6.10;5.53;;;;;;;12.84;95.63;154657.50;5046419;28;20540;-74
2021/10/31 08:38:02;;;;;;;6.37;5.77;;;;;;;13.04;96.38;154709.44;5054863;28;20481;-74
2021/10/31 08:40:38;;;;;;;6.47;5.80;;;;;;;12.75;95.22;154634.19;5068929;28;20436;-74
2021/10/31 08:43:14;;;;;;;6.33;5.73;;;;;;;12.55;95.39;154582.34;5091905;28;20460;-74
2021/10/31 08:45:49;;;;;;;7.10;6.40;;;;;;;12.47;95.46;154561.59;5074826;28;20536;-74
2021/10/31 08:48:25;;;;;;;7.47;6.80;;;;;;;12.43;98.23;154551.19;5061117;28;20429;-74
2021/10/31 08:51:01;;;;;;;6.30;5.70;;;;;;;12.34;96.43;154527.88;5073505;28;20442;-74
2021/10/31 08:53:38;;;;;;;6.87;6.17;;;;;;;12.38;97.53;154538.22;5089199;28;20793;-74
2021/10/31 08:56:14;;;;;;;7.53;6.67;;;;;;;12.33;96.96;154525.25;5072354;28;20442;-74
2021/10/31 08:58:49;;;;;;;7.10;6.30;;;;;;;12.49;98.34;154568.06;5083292;28;20920;-74
2021/10/31 09:01:25;;;;;;;7.30;6.60;;;;;;;12.56;96.98;154584.91;5099304;28;20520;-74
2021/10/31 09:04:01;;;;;;;6.73;6.07;;;;;;;12.56;96.28;154584.91;5072473;28;20476;-74
2021/10/31 09:06:37;;;;;;;6.57;5.93;;;;;;;12.69;95.39;154619.91;5059504;28;20468;-74
2021/10/31 09:09:14;;;;;;;8.10;7.30;;;;;;;12.64;96.89;154605.66;5091103;28;20429;-74
2021/10/31 09:11:50;;;;;;;7.30;6.60;;;;;;;12.68;95.98;154617.31;5082710;28;20847;-74
2021/10/31 09:14:25;;;;;;;7.73;7.00;;;;;;;12.88;95.77;154667.91;5068153;28;20932;-74
2021/10/31 09:17:01;;;;;;;12.43;10.00;;;;;;;12.81;94.33;154649.75;5054504;28;20445;-74
2021/10/31 09:19:37;;;;;;;8.27;7.33;;;;;;;12.86;95.72;154662.72;5059856;28;20925;-74
2021/10/31 09:22:13;;;;;;;7.47;6.80;;;;;;;12.89;96.81;154670.53;5075931;28;20464;-74
2021/10/31 09:24:50;;;;;;;11.00;6.80;;;;;;;12.96;95.61;154688.66;5074578;28;20828;-74
2021/10/31 09:27:27;;;;;;;7.80;6.77;;;;;;;13.03;96.74;154706.81;5078038;28;20473;-74
2021/10/31 09:30:02;;;;;;;8.53;7.63;;;;;;;13.08;95.82;154719.81;5076973;28;20453;-74
2021/10/31 09:32:45;;;;;;;6.23;5.50;;;;;;;13.10;95.97;154725.06;5086988;28;20445;-74
2021/10/31 09:35:25;;;;;;;4.90;4.50;;;;;;;13.08;95.67;154719.81;5039221;28;20472;-74
2021/10/31 09:38:02;;;;;;;4.97;4.40;;;;;;;13.13;94.75;154732.78;5101593;28;20464;-74
2021/10/31 09:40:39;;;;;;;6.03;5.43;;;;;;;13.12;94.92;154730.22;5076068;28;20438;-74
2021/10/31 09:43:15;;;;;;;5.30;4.80;;;;;;;13.30;95.25;154776.94;5056651;28;20446;-74
2021/10/31 09:45:51;;;;;;;4.87;4.37;;;;;;;13.30;94.29;154775.63;5074090;28;20835;-74
2021/10/31 09:48:32;;;;;;;5.37;4.87;;;;;;;13.36;93.52;154792.53;5075829;28;20477;-74
2021/10/31 09:51:08;;;;;;;5.30;4.50;;;;;;;13.31;94.01;154778.25;5109013;28;20951;-74
2021/10/31 09:53:44;;;;;;;4.53;4.13;;;;;;;13.33;95.17;154783.44;5099812;28;20455;-75
2021/10/31 09:56:22;;;;;;;4.60;4.10;;;;;;;13.31;95.70;154779.56;5050950;28;20808;-74
2021/10/31 09:58:59;;;;;;;4.00;3.27;;;;;;;13.40;95.09;154802.88;5068723;28;20784;-74
2021/10/31 10:01:49;;;;;;;4.33;3.93;;;;;;;13.42;95.88;154806.81;5074238;28;20422;-74
2021/10/31 10:04:29;;;;;;;3.90;3.50;;;;;;;13.47;95.68;154818.47;5074947;28;20442;-74
2021/10/31 10:07:06;;;;;;;4.50;3.43;;;;;;;13.59;94.27;154849.59;5073324;28;20476;-74
2021/10/31 10:09:50;;;;;;;4.10;3.00;;;;;;;13.64;94.01;154862.56;5099784;28;20481;-74
2021/10/31 10:12:29;;;;;;;3.40;3.10;;;;;;;13.82;93.40;154909.34;5082444;28;20795;-74
2021/10/31 10:15:07;;;;;;;3.60;3.30;;;;;;;13.86;91.55;154919.69;5082127;28;20421;-73
2021/10/31 10:17:46;;;;;;;3.93;3.53;;;;;;;13.90;92.66;154931.38;5055971;28;20438;-74
2021/10/31 10:20:22;;;;;;;3.67;3.37;;;;;;;13.91;92.05;154932.66;5077076;28;20527;-75
2021/10/31 10:23:08;;;;;;;3.90;3.50;;;;;;;13.99;92.58;154953.44;5073862;28;21005;-72
2021/10/31 10:25:44;;;;;;;5.13;3.73;;;;;;;14.27;90.62;155026.13;5109722;28;20469;-74
2021/10/31 10:28:25;;;;;;;3.67;3.27;;;;;;;14.37;89.83;155052.19;5067363;28;20476;-74
2021/10/31 10:31:19;;;;;;;3.93;3.60;;;;;;;14.61;86.28;155114.50;5067280;28;20528;-74
2021/10/31 10:33:54;;;;;;;6.33;4.73;;;;;;;14.63;86.41;155118.41;5110126;28;20445;-74
2021/10/31 10:36:39;;;;;;;4.23;3.83;;;;;;;14.78;85.21;155156.06;5102479;28;20484;-74
2021/10/31 10:39:17;;;;;;;4.00;3.50;;;;;;;14.84;83.93;155171.66;5065379;28;20473;-74
2021/10/31 10:41:55;;;;;;;5.90;4.93;;;;;;;14.82;84.98;155166.47;5062474;28;20445;-74
2021/10/31 10:44:33;;;;;;;6.73;5.97;;;;;;;14.90;84.31;155188.56;5094794;28;20446;-72
2021/10/31 10:47:12;;;;;;;8.83;7.57;;;;;;;14.88;84.36;155182.09;5076490;28;20477;-75
2021/10/31 10:49:48;;;;;;;7.40;5.83;;;;;;;15.09;82.60;155237.91;5092562;28;20440;-74
2021/10/31 10:52:26;;;;;;;7.97;5.00;;;;;;;15.19;81.71;155262.63;5075101;28;20445;-74
2021/10/31 10:55:07;;;;;;;5.73;4.73;;;;;;;15.31;81.77;155293.78;5077464;28;20872;-75
2021/10/31 10:57:44;;;;;;;4.73;4.20;;;;;;;15.28;81.64;155286.00;5066290;28;20445;-75
2021/10/31 11:00:23;;;;;;;5.23;4.40;;;;;;;15.27;81.46;155283.44;5055785;28;20954;-74
2021/10/31 11:03:02;;;;;;;4.73;4.27;;;;;;;15.24;81.70;155276.94;5085382;28;20449;-75
2021/10/31 11:05:40;;;;;;;3.40;3.10;;;;;;;15.26;81.76;155280.81;5091465;28;20835;-75
2021/10/31 11:08:17;;;;;;;4.10;3.70;;;;;;;15.32;79.49;155296.41;5069211;28;20464;-75
2021/10/31 11:16:41;;;;;;;3.90;3.33;;;;;;;15.83;74.17;155427.75;5087654;28;20567;-74
2021/10/31 11:19:17;;;;;;;5.20;3.17;;;;;;;15.89;75.25;155443.31;5091219;28;20441;-74
2021/10/31 11:21:56;;;;;;;4.63;3.03;;;;;;;15.86;74.66;155434.25;5089498;28;20440;-74
2021/10/31 11:24:31;;;;;;;3.83;2.80;;;;;;;15.75;75.77;155408.22;5080104;28;20454;-74
2021/10/31 11:27:07;;;;;;;3.23;2.87;;;;;;;15.82;73.94;155425.13;5074723;28;20461;-74
2021/10/31 11:29:44;;;;;;;3.60;2.90;;;;;;;15.90;72.90;155444.63;5088826;28;20528;-74
2021/10/31 11:32:22;;;;;;;3.53;2.70;;;;;;;16.27;69.19;155540.84;5092083;28;20441;-74
2021/10/31 11:35:01;;;;;;;2.57;2.37;;;;;;;16.46;68.17;155590.28;5073939;28;20502;-74
2021/10/31 11:37:42;;;;;;;3.37;2.73;;;;;;;16.35;69.78;155562.97;5074332;28;20441;-74
2021/10/31 11:40:18;;;;;;;3.80;3.07;;;;;;;16.25;70.12;155536.97;5088948;28;20440;-74
2021/10/31 11:42:54;;;;;;;3.20;2.67;;;;;;;16.26;71.63;155538.25;5072841;28;20476;-74
2021/10/31 11:45:34;;;;;;;2.97;2.77;;;;;;;16.51;68.52;155603.28;5072552;28;20449;-74
2021/10/31 11:48:14;;;;;;;3.73;3.40;;;;;;;16.58;68.82;155621.53;5073349;28;20472;-74
2021/10/31 11:51:10;;;;;;;2.87;2.57;;;;;;;16.67;69.39;155644.97;5073282;28;20457;-74
2021/10/31 11:54:10;;;;;;;3.33;2.83;;;;;;;16.68;69.16;155647.53;5073898;28;20823;-74
2021/10/31 11:56:50;;;;;;;3.60;3.30;;;;;;;16.78;68.88;155673.59;5073769;28;20448;-74
2021/10/31 11:59:26;;;;;;;3.27;2.93;;;;;;;16.68;68.26;155647.53;5073355;28;20889;-74
2021/10/31 12:02:02;;;;;;;3.50;3.20;;;;;;;16.78;68.54;155673.59;5076561;28;20449;-74
2021/10/31 12:05:24;;;;;;;3.40;3.10;;;;;;;16.67;69.24;155643.66;5068864;28;20787;-74
2021/10/31 12:08:02;;;;;;;3.73;3.43;;;;;;;16.77;69.01;155669.66;5064966;28;20527;-74
2021/10/31 12:10:47;;;;;;;3.10;2.70;;;;;;;16.85;66.20;155690.50;5068019;28;20788;-74
2021/10/31 12:13:24;;;;;;;3.37;2.77;;;;;;;16.96;67.04;155719.13;5091796;28;20776;-74
2021/10/31 12:16:01;;;;;;;2.77;2.50;;;;;;;17.13;64.73;155762.06;5090917;28;20484;-74